sensor_id;sensor_type;location;lat;lon;timestamp;P1;durP1;ratioP1;P2;durP2;ratioP2
31676;SDS011;18385;51.572;6.578;2023-03-03T00:01:19;27.75;;;10.98;;
31676;SDS011;18385;51.572;6.578;2023-03-03T00:03:44;32.30;;;11.30;;
31676;SDS011;18385;51.572;6.578;2023-03-03T00:06:11;29.00;;;11.23;;
31676;SDS011;18385;51.572;6.578;2023-03-03T00:08:38;32.47;;;12.15;;
31676;SDS011;18385;51.572;6.578;2023-03-03T00:11:04;28.20;;;11.65;;
31676;SDS011;18385;51.572;6.578;2023-03-03T00:13:32;26.48;;;11.40;;
31676;SDS011;18385;51.572;6.578;2023-03-03T00:16:10;30.10;;;11.38;;
31676;SDS011;18385;51.572;6.578;2023-03-03T00:18:43;27.80;;;10.82;;
31676;SDS011;18385;51.572;6.578;2023-03-03T00:21:24;32.75;;;11.93;;
31676;SDS011;18385;51.572;6.578;2023-03-03T00:23:54;28.60;;;10.80;;
31676;SDS011;18385;51.572;6.578;2023-03-03T00:26:30;31.58;;;12.05;;
31676;SDS011;18385;51.572;6.578;2023-03-03T00:29:00;27.33;;;10.32;;
31676;SDS011;18385;51.572;6.578;2023-03-03T00:31:34;28.40;;;10.75;;
31676;SDS011;18385;51.572;6.578;2023-03-03T00:36:41;34.95;;;11.80;;
31676;SDS011;18385;51.572;6.578;2023-03-03T00:41:41;30.35;;;12.25;;
31676;SDS011;18385;51.572;6.578;2023-03-03T00:49:54;26.65;;;11.38;;
31676;SDS011;18385;51.572;6.578;2023-03-03T00:52:46;29.20;;;10.38;;
31676;SDS011;18385;51.572;6.578;2023-03-03T00:55:26;28.88;;;10.43;;
31676;SDS011;18385;51.572;6.578;2023-03-03T00:57:53;34.05;;;12.15;;
31676;SDS011;18385;51.572;6.578;2023-03-03T01:00:23;28.58;;;10.60;;
31676;SDS011;18385;51.572;6.578;2023-03-03T01:02:49;29.08;;;11.25;;
31676;SDS011;18385;51.572;6.578;2023-03-03T01:05:16;30.95;;;11.35;;
31676;SDS011;18385;51.572;6.578;2023-03-03T01:07:43;29.20;;;10.40;;
31676;SDS011;18385;51.572;6.578;2023-03-03T01:10:09;32.22;;;11.32;;
31676;SDS011;18385;51.572;6.578;2023-03-03T01:12:35;30.90;;;10.95;;
31676;SDS011;18385;51.572;6.578;2023-03-03T01:15:03;29.58;;;11.23;;
31676;SDS011;18385;51.572;6.578;2023-03-03T01:17:30;29.10;;;11.00;;
31676;SDS011;18385;51.572;6.578;2023-03-03T01:19:57;26.85;;;9.82;;
31676;SDS011;18385;51.572;6.578;2023-03-03T01:22:22;31.67;;;11.10;;
31676;SDS011;18385;51.572;6.578;2023-03-03T01:24:48;30.92;;;10.75;;
31676;SDS011;18385;51.572;6.578;2023-03-03T01:27:14;27.48;;;9.88;;
31676;SDS011;18385;51.572;6.578;2023-03-03T01:29:40;29.65;;;10.50;;
31676;SDS011;18385;51.572;6.578;2023-03-03T01:32:06;33.22;;;10.80;;
31676;SDS011;18385;51.572;6.578;2023-03-03T01:34:31;33.15;;;10.65;;
31676;SDS011;18385;51.572;6.578;2023-03-03T01:36:58;32.50;;;11.35;;
31676;SDS011;18385;51.572;6.578;2023-03-03T01:39:25;28.75;;;10.63;;
31676;SDS011;18385;51.572;6.578;2023-03-03T01:41:51;26.40;;;10.27;;
31676;SDS011;18385;51.572;6.578;2023-03-03T01:44:16;34.83;;;11.20;;
31676;SDS011;18385;51.572;6.578;2023-03-03T01:49:13;29.00;;;9.15;;
31676;SDS011;18385;51.572;6.578;2023-03-03T01:51:47;37.05;;;11.68;;
31676;SDS011;18385;51.572;6.578;2023-03-03T01:54:27;33.00;;;11.48;;
31676;SDS011;18385;51.572;6.578;2023-03-03T01:57:06;35.15;;;10.82;;
31676;SDS011;18385;51.572;6.578;2023-03-03T01:59:40;29.70;;;11.00;;
31676;SDS011;18385;51.572;6.578;2023-03-03T02:02:10;30.88;;;10.52;;
31676;SDS011;18385;51.572;6.578;2023-03-03T02:04:36;30.05;;;10.57;;
31676;SDS011;18385;51.572;6.578;2023-03-03T02:07:03;31.92;;;10.70;;
31676;SDS011;18385;51.572;6.578;2023-03-03T02:09:40;31.65;;;10.68;;
31676;SDS011;18385;51.572;6.578;2023-03-03T02:12:15;32.03;;;11.38;;
31676;SDS011;18385;51.572;6.578;2023-03-03T02:14:44;33.88;;;10.82;;
31676;SDS011;18385;51.572;6.578;2023-03-03T02:17:09;32.13;;;12.02;;
31676;SDS011;18385;51.572;6.578;2023-03-03T02:22:33;33.78;;;12.40;;
31676;SDS011;18385;51.572;6.578;2023-03-03T02:25:10;31.50;;;11.82;;
31676;SDS011;18385;51.572;6.578;2023-03-03T02:27:44;34.60;;;11.45;;
31676;SDS011;18385;51.572;6.578;2023-03-03T02:30:12;33.20;;;11.38;;
31676;SDS011;18385;51.572;6.578;2023-03-03T02:32:40;34.17;;;11.45;;
31676;SDS011;18385;51.572;6.578;2023-03-03T02:38:01;33.97;;;11.70;;
31676;SDS011;18385;51.572;6.578;2023-03-03T02:40:36;34.88;;;10.93;;
31676;SDS011;18385;51.572;6.578;2023-03-03T02:43:08;30.40;;;10.35;;
31676;SDS011;18385;51.572;6.578;2023-03-03T02:45:45;35.28;;;11.63;;
31676;SDS011;18385;51.572;6.578;2023-03-03T02:48:10;32.85;;;11.73;;
31676;SDS011;18385;51.572;6.578;2023-03-03T02:50:37;34.75;;;10.93;;
31676;SDS011;18385;51.572;6.578;2023-03-03T02:53:02;32.92;;;11.80;;
31676;SDS011;18385;51.572;6.578;2023-03-03T02:55:28;37.05;;;11.13;;
31676;SDS011;18385;51.572;6.578;2023-03-03T02:57:54;30.55;;;11.30;;
31676;SDS011;18385;51.572;6.578;2023-03-03T03:00:19;34.75;;;10.85;;
31676;SDS011;18385;51.572;6.578;2023-03-03T03:02:46;34.45;;;11.52;;
31676;SDS011;18385;51.572;6.578;2023-03-03T03:05:11;31.77;;;10.82;;
31676;SDS011;18385;51.572;6.578;2023-03-03T03:07:38;38.67;;;12.52;;
31676;SDS011;18385;51.572;6.578;2023-03-03T03:10:04;29.98;;;10.02;;
31676;SDS011;18385;51.572;6.578;2023-03-03T03:12:33;44.42;;;12.32;;
31676;SDS011;18385;51.572;6.578;2023-03-03T03:15:00;31.25;;;10.63;;
31676;SDS011;18385;51.572;6.578;2023-03-03T03:17:25;36.08;;;11.68;;
31676;SDS011;18385;51.572;6.578;2023-03-03T03:19:52;38.47;;;11.07;;
31676;SDS011;18385;51.572;6.578;2023-03-03T03:22:18;41.78;;;12.65;;
31676;SDS011;18385;51.572;6.578;2023-03-03T03:24:44;35.60;;;11.80;;
31676;SDS011;18385;51.572;6.578;2023-03-03T03:27:11;36.33;;;12.80;;
31676;SDS011;18385;51.572;6.578;2023-03-03T03:29:36;36.53;;;11.60;;
31676;SDS011;18385;51.572;6.578;2023-03-03T03:32:03;36.60;;;11.98;;
31676;SDS011;18385;51.572;6.578;2023-03-03T03:34:29;36.78;;;13.52;;
31676;SDS011;18385;51.572;6.578;2023-03-03T03:36:55;38.33;;;11.48;;
31676;SDS011;18385;51.572;6.578;2023-03-03T03:39:23;38.08;;;12.50;;
31676;SDS011;18385;51.572;6.578;2023-03-03T03:41:50;35.70;;;11.57;;
31676;SDS011;18385;51.572;6.578;2023-03-03T03:44:16;35.80;;;12.52;;
31676;SDS011;18385;51.572;6.578;2023-03-03T03:46:42;38.22;;;11.88;;
31676;SDS011;18385;51.572;6.578;2023-03-03T03:49:09;34.33;;;11.80;;
31676;SDS011;18385;51.572;6.578;2023-03-03T03:51:34;33.28;;;12.02;;
31676;SDS011;18385;51.572;6.578;2023-03-03T03:54:03;37.20;;;11.52;;
31676;SDS011;18385;51.572;6.578;2023-03-03T03:56:29;35.92;;;11.50;;
31676;SDS011;18385;51.572;6.578;2023-03-03T03:58:57;43.80;;;12.00;;
31676;SDS011;18385;51.572;6.578;2023-03-03T04:01:24;46.20;;;13.98;;
31676;SDS011;18385;51.572;6.578;2023-03-03T04:03:50;39.60;;;11.57;;
31676;SDS011;18385;51.572;6.578;2023-03-03T04:06:20;45.85;;;13.45;;
31676;SDS011;18385;51.572;6.578;2023-03-03T04:08:45;43.17;;;13.07;;
31676;SDS011;18385;51.572;6.578;2023-03-03T04:11:13;46.28;;;13.70;;
31676;SDS011;18385;51.572;6.578;2023-03-03T04:13:38;46.97;;;13.00;;
31676;SDS011;18385;51.572;6.578;2023-03-03T04:16:06;56.10;;;13.43;;
31676;SDS011;18385;51.572;6.578;2023-03-03T04:18:33;50.65;;;14.02;;
31676;SDS011;18385;51.572;6.578;2023-03-03T04:20:59;53.15;;;14.80;;
31676;SDS011;18385;51.572;6.578;2023-03-03T04:23:26;47.17;;;13.82;;
31676;SDS011;18385;51.572;6.578;2023-03-03T04:25:52;48.78;;;13.57;;
31676;SDS011;18385;51.572;6.578;2023-03-03T04:28:18;43.03;;;12.20;;
31676;SDS011;18385;51.572;6.578;2023-03-03T04:30:44;50.20;;;14.93;;
31676;SDS011;18385;51.572;6.578;2023-03-03T04:33:11;49.45;;;14.88;;
31676;SDS011;18385;51.572;6.578;2023-03-03T04:35:39;47.08;;;13.57;;
31676;SDS011;18385;51.572;6.578;2023-03-03T04:38:05;48.20;;;13.07;;
31676;SDS011;18385;51.572;6.578;2023-03-03T04:40:32;50.22;;;15.52;;
31676;SDS011;18385;51.572;6.578;2023-03-03T04:42:59;47.42;;;14.02;;
31676;SDS011;18385;51.572;6.578;2023-03-03T04:45:25;55.00;;;15.18;;
31676;SDS011;18385;51.572;6.578;2023-03-03T04:47:51;47.72;;;12.93;;
31676;SDS011;18385;51.572;6.578;2023-03-03T04:50:17;44.65;;;12.82;;
31676;SDS011;18385;51.572;6.578;2023-03-03T04:52:43;40.08;;;12.98;;
31676;SDS011;18385;51.572;6.578;2023-03-03T04:55:10;41.65;;;12.98;;
31676;SDS011;18385;51.572;6.578;2023-03-03T04:57:38;43.97;;;13.85;;
31676;SDS011;18385;51.572;6.578;2023-03-03T05:00:03;47.05;;;14.05;;
31676;SDS011;18385;51.572;6.578;2023-03-03T05:02:30;42.22;;;12.60;;
31676;SDS011;18385;51.572;6.578;2023-03-03T05:04:56;48.45;;;15.05;;
31676;SDS011;18385;51.572;6.578;2023-03-03T05:07:22;47.97;;;12.95;;
31676;SDS011;18385;51.572;6.578;2023-03-03T05:09:48;47.80;;;13.80;;
31676;SDS011;18385;51.572;6.578;2023-03-03T05:12:14;46.53;;;13.70;;
31676;SDS011;18385;51.572;6.578;2023-03-03T05:14:40;45.13;;;13.52;;
31676;SDS011;18385;51.572;6.578;2023-03-03T05:17:06;41.90;;;13.65;;
31676;SDS011;18385;51.572;6.578;2023-03-03T05:19:32;35.92;;;12.77;;
31676;SDS011;18385;51.572;6.578;2023-03-03T05:21:59;46.95;;;13.70;;
31676;SDS011;18385;51.572;6.578;2023-03-03T05:24:26;40.22;;;13.40;;
31676;SDS011;18385;51.572;6.578;2023-03-03T05:26:51;44.53;;;13.75;;
31676;SDS011;18385;51.572;6.578;2023-03-03T05:29:17;42.25;;;12.80;;
31676;SDS011;18385;51.572;6.578;2023-03-03T05:31:43;41.42;;;12.98;;
31676;SDS011;18385;51.572;6.578;2023-03-03T05:34:09;36.20;;;12.27;;
31676;SDS011;18385;51.572;6.578;2023-03-03T05:36:35;38.17;;;13.02;;
31676;SDS011;18385;51.572;6.578;2023-03-03T05:39:00;34.00;;;12.25;;
31676;SDS011;18385;51.572;6.578;2023-03-03T05:41:26;39.38;;;12.23;;
31676;SDS011;18385;51.572;6.578;2023-03-03T05:43:52;39.28;;;11.68;;
31676;SDS011;18385;51.572;6.578;2023-03-03T05:46:17;33.50;;;12.27;;
31676;SDS011;18385;51.572;6.578;2023-03-03T05:48:43;38.40;;;13.00;;
31676;SDS011;18385;51.572;6.578;2023-03-03T05:51:09;37.20;;;12.35;;
31676;SDS011;18385;51.572;6.578;2023-03-03T05:53:35;39.10;;;12.25;;
31676;SDS011;18385;51.572;6.578;2023-03-03T05:56:01;33.85;;;12.50;;
31676;SDS011;18385;51.572;6.578;2023-03-03T05:58:27;37.33;;;12.20;;
31676;SDS011;18385;51.572;6.578;2023-03-03T06:00:53;40.65;;;12.88;;
31676;SDS011;18385;51.572;6.578;2023-03-03T06:03:18;32.03;;;11.75;;
31676;SDS011;18385;51.572;6.578;2023-03-03T06:05:44;31.77;;;10.55;;
31676;SDS011;18385;51.572;6.578;2023-03-03T06:08:10;34.92;;;12.43;;
31676;SDS011;18385;51.572;6.578;2023-03-03T06:10:35;40.05;;;12.85;;
31676;SDS011;18385;51.572;6.578;2023-03-03T06:13:04;36.85;;;10.93;;
31676;SDS011;18385;51.572;6.578;2023-03-03T06:15:29;33.72;;;11.75;;
31676;SDS011;18385;51.572;6.578;2023-03-03T06:17:55;27.33;;;10.40;;
31676;SDS011;18385;51.572;6.578;2023-03-03T06:20:21;39.08;;;12.45;;
31676;SDS011;18385;51.572;6.578;2023-03-03T06:22:46;33.63;;;11.23;;
31676;SDS011;18385;51.572;6.578;2023-03-03T06:25:12;36.33;;;12.02;;
31676;SDS011;18385;51.572;6.578;2023-03-03T06:27:38;34.80;;;10.85;;
31676;SDS011;18385;51.572;6.578;2023-03-03T06:30:04;32.33;;;12.05;;
31676;SDS011;18385;51.572;6.578;2023-03-03T06:32:30;32.58;;;11.02;;
31676;SDS011;18385;51.572;6.578;2023-03-03T06:34:56;30.25;;;11.32;;
31676;SDS011;18385;51.572;6.578;2023-03-03T06:37:21;33.60;;;11.57;;
31676;SDS011;18385;51.572;6.578;2023-03-03T06:39:47;31.13;;;11.68;;
31676;SDS011;18385;51.572;6.578;2023-03-03T06:42:12;29.58;;;10.60;;
31676;SDS011;18385;51.572;6.578;2023-03-03T06:44:38;36.83;;;11.73;;
31676;SDS011;18385;51.572;6.578;2023-03-03T06:47:04;28.75;;;10.80;;
31676;SDS011;18385;51.572;6.578;2023-03-03T06:49:30;32.33;;;10.82;;
31676;SDS011;18385;51.572;6.578;2023-03-03T06:51:56;31.45;;;10.82;;
31676;SDS011;18385;51.572;6.578;2023-03-03T06:56:52;32.53;;;10.93;;
31676;SDS011;18385;51.572;6.578;2023-03-03T06:59:23;27.73;;;9.43;;
31676;SDS011;18385;51.572;6.578;2023-03-03T07:01:50;28.70;;;10.00;;
31676;SDS011;18385;51.572;6.578;2023-03-03T07:04:30;27.55;;;9.68;;
31676;SDS011;18385;51.572;6.578;2023-03-03T07:06:59;28.90;;;10.35;;
31676;SDS011;18385;51.572;6.578;2023-03-03T07:09:35;27.58;;;10.38;;
31676;SDS011;18385;51.572;6.578;2023-03-03T07:12:09;27.95;;;9.38;;
31676;SDS011;18385;51.572;6.578;2023-03-03T07:14:44;29.67;;;9.93;;
31676;SDS011;18385;51.572;6.578;2023-03-03T07:17:19;27.52;;;8.95;;
31676;SDS011;18385;51.572;6.578;2023-03-03T07:19:45;27.40;;;9.85;;
31676;SDS011;18385;51.572;6.578;2023-03-03T07:24:45;32.13;;;10.60;;
31676;SDS011;18385;51.572;6.578;2023-03-03T07:27:23;27.15;;;9.25;;
31676;SDS011;18385;51.572;6.578;2023-03-03T07:29:52;25.13;;;7.85;;
31676;SDS011;18385;51.572;6.578;2023-03-03T07:34:55;29.98;;;9.27;;
31676;SDS011;18385;51.572;6.578;2023-03-03T07:37:25;31.02;;;10.27;;
31676;SDS011;18385;51.572;6.578;2023-03-03T07:39:55;32.35;;;10.38;;
31676;SDS011;18385;51.572;6.578;2023-03-03T07:42:22;31.15;;;10.68;;
31676;SDS011;18385;51.572;6.578;2023-03-03T07:44:58;26.77;;;9.55;;
31676;SDS011;18385;51.572;6.578;2023-03-03T07:47:25;28.88;;;9.48;;
31676;SDS011;18385;51.572;6.578;2023-03-03T07:49:59;27.75;;;9.77;;
31676;SDS011;18385;51.572;6.578;2023-03-03T07:52:38;31.90;;;9.00;;
31676;SDS011;18385;51.572;6.578;2023-03-03T07:55:18;29.88;;;10.25;;
31676;SDS011;18385;51.572;6.578;2023-03-03T07:58:14;28.52;;;8.50;;
31676;SDS011;18385;51.572;6.578;2023-03-03T08:06:44;30.70;;;9.48;;
31676;SDS011;18385;51.572;6.578;2023-03-03T08:14:34;29.95;;;8.55;;
31676;SDS011;18385;51.572;6.578;2023-03-03T08:17:06;29.08;;;9.43;;
31676;SDS011;18385;51.572;6.578;2023-03-03T08:19:41;28.35;;;8.82;;
31676;SDS011;18385;51.572;6.578;2023-03-03T08:22:17;33.05;;;10.50;;
31676;SDS011;18385;51.572;6.578;2023-03-03T08:24:55;26.17;;;9.27;;
31676;SDS011;18385;51.572;6.578;2023-03-03T08:27:21;28.98;;;9.00;;
31676;SDS011;18385;51.572;6.578;2023-03-03T08:29:47;29.90;;;8.90;;
31676;SDS011;18385;51.572;6.578;2023-03-03T08:32:14;29.83;;;8.82;;
31676;SDS011;18385;51.572;6.578;2023-03-03T08:34:40;28.58;;;9.55;;
31676;SDS011;18385;51.572;6.578;2023-03-03T08:37:05;26.23;;;8.93;;
31676;SDS011;18385;51.572;6.578;2023-03-03T08:39:31;28.45;;;9.15;;
31676;SDS011;18385;51.572;6.578;2023-03-03T08:41:57;26.27;;;8.48;;
31676;SDS011;18385;51.572;6.578;2023-03-03T08:44:22;26.35;;;8.65;;
31676;SDS011;18385;51.572;6.578;2023-03-03T08:46:48;27.20;;;9.25;;
31676;SDS011;18385;51.572;6.578;2023-03-03T08:49:14;29.88;;;8.85;;
31676;SDS011;18385;51.572;6.578;2023-03-03T08:51:39;26.27;;;9.05;;
31676;SDS011;18385;51.572;6.578;2023-03-03T08:54:05;27.45;;;8.13;;
31676;SDS011;18385;51.572;6.578;2023-03-03T08:56:31;25.65;;;8.88;;
31676;SDS011;18385;51.572;6.578;2023-03-03T08:58:56;27.63;;;8.05;;
31676;SDS011;18385;51.572;6.578;2023-03-03T09:01:22;27.60;;;8.60;;
31676;SDS011;18385;51.572;6.578;2023-03-03T09:03:48;29.27;;;8.57;;
31676;SDS011;18385;51.572;6.578;2023-03-03T09:06:13;26.40;;;8.60;;
31676;SDS011;18385;51.572;6.578;2023-03-03T09:08:39;26.00;;;8.45;;
31676;SDS011;18385;51.572;6.578;2023-03-03T09:11:09;32.47;;;8.68;;
31676;SDS011;18385;51.572;6.578;2023-03-03T09:13:39;29.23;;;8.63;;
31676;SDS011;18385;51.572;6.578;2023-03-03T09:16:14;33.88;;;10.02;;
31676;SDS011;18385;51.572;6.578;2023-03-03T09:18:40;26.08;;;8.77;;
31676;SDS011;18385;51.572;6.578;2023-03-03T09:21:20;28.63;;;9.48;;
31676;SDS011;18385;51.572;6.578;2023-03-03T09:23:54;32.05;;;10.30;;
31676;SDS011;18385;51.572;6.578;2023-03-03T09:26:26;25.70;;;8.45;;
31676;SDS011;18385;51.572;6.578;2023-03-03T09:31:42;30.05;;;9.10;;
31676;SDS011;18385;51.572;6.578;2023-03-03T09:36:49;31.70;;;9.53;;
31676;SDS011;18385;51.572;6.578;2023-03-03T09:39:17;28.15;;;9.80;;
31676;SDS011;18385;51.572;6.578;2023-03-03T09:41:56;23.87;;;6.80;;
31676;SDS011;18385;51.572;6.578;2023-03-03T09:47:26;28.33;;;7.72;;
31676;SDS011;18385;51.572;6.578;2023-03-03T10:01:03;21.67;;;7.38;;
31676;SDS011;18385;51.572;6.578;2023-03-03T10:06:31;24.02;;;7.35;;
31676;SDS011;18385;51.572;6.578;2023-03-03T10:11:52;21.10;;;7.55;;
31676;SDS011;18385;51.572;6.578;2023-03-03T10:17:31;28.85;;;8.05;;
31676;SDS011;18385;51.572;6.578;2023-03-03T10:23:09;21.50;;;8.20;;
31676;SDS011;18385;51.572;6.578;2023-03-03T10:34:14;24.40;;;7.47;;
31676;SDS011;18385;51.572;6.578;2023-03-03T10:37:14;23.08;;;7.95;;
31676;SDS011;18385;51.572;6.578;2023-03-03T10:50:33;26.20;;;7.32;;
31676;SDS011;18385;51.572;6.578;2023-03-03T11:07:36;24.45;;;7.50;;
31676;SDS011;18385;51.572;6.578;2023-03-03T11:10:13;30.27;;;8.15;;
31676;SDS011;18385;51.572;6.578;2023-03-03T11:12:46;21.85;;;7.10;;
31676;SDS011;18385;51.572;6.578;2023-03-03T11:15:32;26.05;;;8.05;;
31676;SDS011;18385;51.572;6.578;2023-03-03T11:18:33;23.92;;;7.57;;
31676;SDS011;18385;51.572;6.578;2023-03-03T11:21:25;18.33;;;6.50;;
31676;SDS011;18385;51.572;6.578;2023-03-03T11:32:18;22.23;;;7.15;;
31676;SDS011;18385;51.572;6.578;2023-03-03T11:35:28;19.67;;;6.95;;
31676;SDS011;18385;51.572;6.578;2023-03-03T11:41:13;24.17;;;6.80;;
31676;SDS011;18385;51.572;6.578;2023-03-03T11:44:04;18.90;;;6.40;;
31676;SDS011;18385;51.572;6.578;2023-03-03T11:46:35;23.30;;;7.47;;
31676;SDS011;18385;51.572;6.578;2023-03-03T11:49:08;23.77;;;7.07;;
31676;SDS011;18385;51.572;6.578;2023-03-03T11:51:46;19.20;;;6.50;;
31676;SDS011;18385;51.572;6.578;2023-03-03T11:54:33;22.52;;;7.75;;
31676;SDS011;18385;51.572;6.578;2023-03-03T12:00:15;20.38;;;6.82;;
31676;SDS011;18385;51.572;6.578;2023-03-03T12:11:24;17.65;;;5.95;;
31676;SDS011;18385;51.572;6.578;2023-03-03T12:14:00;23.58;;;6.32;;
31676;SDS011;18385;51.572;6.578;2023-03-03T12:19:21;23.48;;;7.35;;
31676;SDS011;18385;51.572;6.578;2023-03-03T12:27:38;21.65;;;6.15;;
31676;SDS011;18385;51.572;6.578;2023-03-03T12:30:19;22.23;;;6.63;;
31676;SDS011;18385;51.572;6.578;2023-03-03T12:32:59;23.98;;;6.32;;
31676;SDS011;18385;51.572;6.578;2023-03-03T12:35:45;18.77;;;5.53;;
31676;SDS011;18385;51.572;6.578;2023-03-03T12:38:29;25.98;;;6.25;;
31676;SDS011;18385;51.572;6.578;2023-03-03T12:41:14;19.00;;;6.97;;
31676;SDS011;18385;51.572;6.578;2023-03-03T12:44:05;19.52;;;6.25;;
31676;SDS011;18385;51.572;6.578;2023-03-03T12:49:08;22.08;;;7.10;;
31676;SDS011;18385;51.572;6.578;2023-03-03T13:02:44;23.08;;;7.38;;
31676;SDS011;18385;51.572;6.578;2023-03-03T13:05:23;16.67;;;5.10;;
31676;SDS011;18385;51.572;6.578;2023-03-03T13:08:12;17.98;;;5.43;;
31676;SDS011;18385;51.572;6.578;2023-03-03T13:11:15;20.08;;;6.20;;
31676;SDS011;18385;51.572;6.578;2023-03-03T13:13:58;18.50;;;6.50;;
31676;SDS011;18385;51.572;6.578;2023-03-03T13:16:37;18.98;;;6.35;;
31676;SDS011;18385;51.572;6.578;2023-03-03T13:19:37;20.25;;;6.60;;
31676;SDS011;18385;51.572;6.578;2023-03-03T13:22:12;18.48;;;5.75;;
31676;SDS011;18385;51.572;6.578;2023-03-03T13:27:26;18.77;;;6.30;;
31676;SDS011;18385;51.572;6.578;2023-03-03T13:30:24;18.98;;;6.03;;
31676;SDS011;18385;51.572;6.578;2023-03-03T13:33:09;19.05;;;6.50;;
31676;SDS011;18385;51.572;6.578;2023-03-03T13:35:53;18.58;;;6.10;;
31676;SDS011;18385;51.572;6.578;2023-03-03T13:41:16;14.52;;;5.20;;
31676;SDS011;18385;51.572;6.578;2023-03-03T13:43:51;15.80;;;5.13;;
31676;SDS011;18385;51.572;6.578;2023-03-03T14:10:56;14.90;;;6.05;;
31676;SDS011;18385;51.572;6.578;2023-03-03T14:13:41;16.60;;;5.40;;
31676;SDS011;18385;51.572;6.578;2023-03-03T14:18:57;14.82;;;5.20;;
31676;SDS011;18385;51.572;6.578;2023-03-03T14:21:48;14.95;;;5.47;;
31676;SDS011;18385;51.572;6.578;2023-03-03T14:24:24;15.43;;;5.88;;
31676;SDS011;18385;51.572;6.578;2023-03-03T14:26:51;13.88;;;5.55;;
31676;SDS011;18385;51.572;6.578;2023-03-03T14:31:53;13.07;;;5.22;;
31676;SDS011;18385;51.572;6.578;2023-03-03T14:40:03;16.48;;;6.10;;
31676;SDS011;18385;51.572;6.578;2023-03-03T14:42:35;16.63;;;5.90;;
31676;SDS011;18385;51.572;6.578;2023-03-03T14:47:49;12.40;;;5.07;;
31676;SDS011;18385;51.572;6.578;2023-03-03T14:50:31;12.43;;;5.93;;
31676;SDS011;18385;51.572;6.578;2023-03-03T14:56:06;12.85;;;5.85;;
31676;SDS011;18385;51.572;6.578;2023-03-03T14:58:48;14.95;;;5.75;;
31676;SDS011;18385;51.572;6.578;2023-03-03T15:01:35;15.57;;;6.00;;
31676;SDS011;18385;51.572;6.578;2023-03-03T15:11:57;16.80;;;6.80;;
31676;SDS011;18385;51.572;6.578;2023-03-03T15:14:31;16.08;;;6.50;;
31676;SDS011;18385;51.572;6.578;2023-03-03T15:22:33;16.70;;;6.90;;
31676;SDS011;18385;51.572;6.578;2023-03-03T15:27:52;17.20;;;6.78;;
31676;SDS011;18385;51.572;6.578;2023-03-03T15:30:38;17.58;;;7.60;;
31676;SDS011;18385;51.572;6.578;2023-03-03T15:33:14;15.10;;;6.20;;
31676;SDS011;18385;51.572;6.578;2023-03-03T15:36:03;17.23;;;6.80;;
31676;SDS011;18385;51.572;6.578;2023-03-03T15:46:52;19.30;;;7.80;;
31676;SDS011;18385;51.572;6.578;2023-03-03T15:55:03;17.70;;;6.47;;
31676;SDS011;18385;51.572;6.578;2023-03-03T16:03:11;19.23;;;7.25;;
31676;SDS011;18385;51.572;6.578;2023-03-03T16:11:33;17.88;;;6.35;;
31676;SDS011;18385;51.572;6.578;2023-03-03T16:14:21;18.35;;;7.90;;
31676;SDS011;18385;51.572;6.578;2023-03-03T16:19:55;13.55;;;5.72;;
31676;SDS011;18385;51.572;6.578;2023-03-03T16:22:40;16.83;;;6.20;;
31676;SDS011;18385;51.572;6.578;2023-03-03T16:35:24;16.50;;;6.93;;
31676;SDS011;18385;51.572;6.578;2023-03-03T16:37:59;16.70;;;7.03;;
31676;SDS011;18385;51.572;6.578;2023-03-03T16:40:32;17.58;;;6.22;;
31676;SDS011;18385;51.572;6.578;2023-03-03T16:46:44;12.95;;;5.80;;
31676;SDS011;18385;51.572;6.578;2023-03-03T16:49:15;17.15;;;5.78;;
31676;SDS011;18385;51.572;6.578;2023-03-03T16:52:06;15.45;;;5.47;;
31676;SDS011;18385;51.572;6.578;2023-03-03T16:57:31;14.82;;;4.72;;
31676;SDS011;18385;51.572;6.578;2023-03-03T17:00:26;18.65;;;5.75;;
31676;SDS011;18385;51.572;6.578;2023-03-03T17:25:44;13.90;;;4.87;;
31676;SDS011;18385;51.572;6.578;2023-03-03T17:41:53;14.45;;;5.22;;
31676;SDS011;18385;51.572;6.578;2023-03-03T17:44:36;13.15;;;5.35;;
31676;SDS011;18385;51.572;6.578;2023-03-03T17:47:10;16.45;;;6.22;;
31676;SDS011;18385;51.572;6.578;2023-03-03T17:58:04;15.35;;;6.20;;
31676;SDS011;18385;51.572;6.578;2023-03-03T18:04:23;17.98;;;7.47;;
31676;SDS011;18385;51.572;6.578;2023-03-03T18:09:24;17.85;;;6.95;;
31676;SDS011;18385;51.572;6.578;2023-03-03T18:12:23;16.45;;;7.18;;
31676;SDS011;18385;51.572;6.578;2023-03-03T18:23:30;13.77;;;5.15;;
31676;SDS011;18385;51.572;6.578;2023-03-03T18:26:40;15.48;;;5.90;;
31676;SDS011;18385;51.572;6.578;2023-03-03T18:28:55;18.30;;;6.43;;
31676;SDS011;18385;51.572;6.578;2023-03-03T18:32:15;13.10;;;5.50;;
31676;SDS011;18385;51.572;6.578;2023-03-03T18:34:35;11.68;;;5.32;;
31676;SDS011;18385;51.572;6.578;2023-03-03T18:50:32;14.10;;;5.90;;
31676;SDS011;18385;51.572;6.578;2023-03-03T18:55:46;8.80;;;4.43;;
31676;SDS011;18385;51.572;6.578;2023-03-03T19:01:32;9.95;;;4.13;;
31676;SDS011;18385;51.572;6.578;2023-03-03T19:09:17;7.93;;;3.50;;
31676;SDS011;18385;51.572;6.578;2023-03-03T19:11:54;8.43;;;3.22;;
31676;SDS011;18385;51.572;6.578;2023-03-03T19:16:54;6.32;;;3.45;;
31676;SDS011;18385;51.572;6.578;2023-03-03T19:19:28;7.10;;;2.70;;
31676;SDS011;18385;51.572;6.578;2023-03-03T19:27:42;3.58;;;1.65;;
31676;SDS011;18385;51.572;6.578;2023-03-03T19:30:31;2.22;;;1.50;;
31676;SDS011;18385;51.572;6.578;2023-03-03T19:38:43;4.88;;;2.03;;
31676;SDS011;18385;51.572;6.578;2023-03-03T19:41:32;6.95;;;1.80;;
31676;SDS011;18385;51.572;6.578;2023-03-03T19:47:19;7.53;;;1.90;;
31676;SDS011;18385;51.572;6.578;2023-03-03T19:49:59;2.80;;;1.67;;
31676;SDS011;18385;51.572;6.578;2023-03-03T19:52:55;3.83;;;1.35;;
31676;SDS011;18385;51.572;6.578;2023-03-03T19:58:31;3.22;;;1.58;;
31676;SDS011;18385;51.572;6.578;2023-03-03T20:01:13;3.08;;;1.48;;
31676;SDS011;18385;51.572;6.578;2023-03-03T20:09:35;3.60;;;1.77;;
31676;SDS011;18385;51.572;6.578;2023-03-03T20:14:53;2.42;;;1.50;;
31676;SDS011;18385;51.572;6.578;2023-03-03T20:28:55;4.47;;;1.90;;
31676;SDS011;18385;51.572;6.578;2023-03-03T20:32:00;3.88;;;2.00;;
31676;SDS011;18385;51.572;6.578;2023-03-03T20:35:19;3.67;;;1.90;;
31676;SDS011;18385;51.572;6.578;2023-03-03T20:40:44;8.35;;;3.05;;
31676;SDS011;18385;51.572;6.578;2023-03-03T20:49:42;9.20;;;4.78;;
31676;SDS011;18385;51.572;6.578;2023-03-03T20:57:55;7.50;;;3.55;;
31676;SDS011;18385;51.572;6.578;2023-03-03T21:05:28;5.72;;;2.00;;
31676;SDS011;18385;51.572;6.578;2023-03-03T21:08:00;3.97;;;1.73;;
31676;SDS011;18385;51.572;6.578;2023-03-03T21:10:31;3.63;;;1.30;;
31676;SDS011;18385;51.572;6.578;2023-03-03T21:15:53;10.30;;;2.63;;
31676;SDS011;18385;51.572;6.578;2023-03-03T21:18:23;16.20;;;2.20;;
31676;SDS011;18385;51.572;6.578;2023-03-03T21:20:50;5.13;;;1.27;;
31676;SDS011;18385;51.572;6.578;2023-03-03T21:23:16;5.90;;;1.00;;
31676;SDS011;18385;51.572;6.578;2023-03-03T21:25:44;5.05;;;1.20;;
31676;SDS011;18385;51.572;6.578;2023-03-03T21:28:16;5.10;;;1.35;;
31676;SDS011;18385;51.572;6.578;2023-03-03T21:36:18;5.63;;;0.90;;
31676;SDS011;18385;51.572;6.578;2023-03-03T21:38:50;4.32;;;1.48;;
31676;SDS011;18385;51.572;6.578;2023-03-03T21:41:18;7.32;;;1.00;;
31676;SDS011;18385;51.572;6.578;2023-03-03T21:43:45;5.93;;;1.25;;
31676;SDS011;18385;51.572;6.578;2023-03-03T21:46:16;6.03;;;1.17;;